createdAt,value
2018-07-26T00:00:00.411Z,18.61
2018-07-26T00:05:05.253Z,18.75
2018-07-26T00:07:34.306Z,18.67
2018-07-26T00:10:03.366Z,18.58
2018-07-26T00:12:32.451Z,18.35
2018-07-26T00:15:01.527Z,18.24
2018-07-26T00:17:30.653Z,18.17
2018-07-26T00:19:59.722Z,18.20
2018-07-26T00:25:04.664Z,18.30
2018-07-26T00:27:33.722Z,18.41
2018-07-26T00:32:38.557Z,18.29
2018-07-26T00:35:07.617Z,18.28
2018-07-26T00:37:37.638Z,18.17
2018-07-26T00:42:42.419Z,18.10
2018-07-26T00:45:11.495Z,18.16
2018-07-26T00:47:40.577Z,17.91
2018-07-26T00:50:09.628Z,17.79
2018-07-26T00:52:38.687Z,17.78
2018-07-26T00:55:07.802Z,17.78
2018-07-26T00:57:36.874Z,17.74
2018-07-26T01:00:05.940Z,17.51
2018-07-26T01:02:35.053Z,17.46
2018-07-26T01:05:04.162Z,17.34
2018-07-26T01:07:33.224Z,17.21
2018-07-26T01:10:02.333Z,17.28
2018-07-26T01:12:31.393Z,17.22
2018-07-26T01:15:00.465Z,17.12
2018-07-26T01:17:29.510Z,17.11
2018-07-26T01:19:58.584Z,17.15
2018-07-26T01:22:27.647Z,17.09
2018-07-26T01:24:56.701Z,17.01
2018-07-26T01:27:27.733Z,16.81
2018-07-26T01:29:56.790Z,16.58
2018-07-26T01:32:25.842Z,16.42
2018-07-26T01:34:56.885Z,16.43
2018-07-26T01:37:25.933Z,16.40
2018-07-26T01:39:54.997Z,16.31
2018-07-26T01:42:24.127Z,16.26
2018-07-26T01:44:53.174Z,16.29
2018-07-26T01:47:23.185Z,16.39
2018-07-26T01:49:52.236Z,16.44
2018-07-26T01:52:21.298Z,16.52
2018-07-26T01:54:50.393Z,16.44
2018-07-26T01:57:19.443Z,16.46
2018-07-26T01:59:48.506Z,16.47
2018-07-26T02:04:53.374Z,16.44
2018-07-26T02:07:24.377Z,16.42
2018-07-26T02:14:09.406Z,16.47
2018-07-26T02:16:38.602Z,16.41
2018-07-26T02:19:08.709Z,16.35
2018-07-26T02:21:37.741Z,16.26
2018-07-26T02:24:06.810Z,16.28
2018-07-26T02:26:35.861Z,16.19
2018-07-26T02:34:17.978Z,16.20
2018-07-26T02:36:47.186Z,16.08
2018-07-26T02:39:16.182Z,16.04
2018-07-26T02:41:45.238Z,16.16
2018-07-26T02:44:14.304Z,16.12
2018-07-26T02:51:55.081Z,16.04
2018-07-26T02:59:35.643Z,16.30
2018-07-26T03:02:04.701Z,16.17
2018-07-26T03:04:34.914Z,16.23
2018-07-26T03:07:04.035Z,16.31
2018-07-26T03:09:33.090Z,16.43
2018-07-26T03:12:02.135Z,16.48
2018-07-26T03:17:06.969Z,16.64
2018-07-26T03:19:36.052Z,16.71
2018-07-26T03:24:40.820Z,16.83
2018-07-26T03:27:10.826Z,16.83
2018-07-26T03:29:41.872Z,16.83
2018-07-26T03:32:11.166Z,16.78
2018-07-26T03:34:40.233Z,16.72
2018-07-26T03:37:09.300Z,16.66
2018-07-26T03:44:49.901Z,16.61
2018-07-26T03:47:18.981Z,16.61
2018-07-26T03:49:48.158Z,16.50
2018-07-26T03:52:17.216Z,16.49
2018-07-26T03:54:46.283Z,16.51
2018-07-26T03:57:15.331Z,16.58
2018-07-26T03:59:44.397Z,16.63
2018-07-26T04:07:24.996Z,16.89
2018-07-26T04:09:55.012Z,17.01
2018-07-26T04:12:24.034Z,17.05
2018-07-26T04:14:53.297Z,17.03
2018-07-26T04:17:25.708Z,17.01
2018-07-26T04:19:54.763Z,16.96
2018-07-26T04:22:23.818Z,16.95
2018-07-26T04:24:52.881Z,16.87
2018-07-26T04:27:22.983Z,16.91
2018-07-26T04:29:52.036Z,17.07
2018-07-26T04:32:21.087Z,17.12
2018-07-26T04:34:52.058Z,17.20
2018-07-26T04:39:56.904Z,17.22
2018-07-26T04:42:26.058Z,17.38
2018-07-26T04:44:56.249Z,17.28
2018-07-26T04:47:25.308Z,17.23
2018-07-26T04:49:54.354Z,17.36
2018-07-26T04:52:23.405Z,17.46
2018-07-26T04:54:52.475Z,17.45
2018-07-26T04:57:21.510Z,17.51
2018-07-26T04:59:50.561Z,17.61
2018-07-26T05:02:19.895Z,17.66
2018-07-26T05:07:24.664Z,17.79
2018-07-26T05:09:53.984Z,17.90
2018-07-26T05:12:23.965Z,17.94
2018-07-26T05:17:28.914Z,18.20
2018-07-26T05:22:34.013Z,18.39
2018-07-26T05:27:43.668Z,18.65
2018-07-26T05:32:48.416Z,18.74
2018-07-26T05:35:17.496Z,18.87
2018-07-26T05:37:47.734Z,18.86
2018-07-26T05:40:16.753Z,18.92
2018-07-26T05:42:46.735Z,19.03
2018-07-26T05:45:15.797Z,19.09
2018-07-26T05:47:45.231Z,19.19
2018-07-26T05:50:14.281Z,19.36
2018-07-26T05:52:43.345Z,19.36
2018-07-26T05:55:13.396Z,19.36
2018-07-26T06:00:18.260Z,19.56
2018-07-26T06:02:47.767Z,19.71
2018-07-26T06:05:18.769Z,19.75
2018-07-26T06:07:47.822Z,19.80
2018-07-26T06:10:16.895Z,19.88
2018-07-26T06:12:47.073Z,19.91
2018-07-26T06:20:27.743Z,20.41
2018-07-26T06:22:57.266Z,20.55
2018-07-26T06:25:35.817Z,20.68
2018-07-26T06:28:04.959Z,20.67
2018-07-26T06:30:34.266Z,20.78
2018-07-26T06:33:03.837Z,20.87
2018-07-26T06:35:33.021Z,20.93
2018-07-26T06:40:37.900Z,21.23
2018-07-26T06:48:18.715Z,21.44
2018-07-26T06:50:47.753Z,21.55
2018-07-26T06:53:16.887Z,21.59
2018-07-26T06:55:46.403Z,21.61
2018-07-26T06:58:15.478Z,21.68
2018-07-26T07:03:20.303Z,22.03
2018-07-26T07:05:49.357Z,22.19
2018-07-26T07:08:25.805Z,22.19
2018-07-26T07:10:54.920Z,22.28
2018-07-26T07:13:24.106Z,22.38
2018-07-26T07:18:28.889Z,22.59
2018-07-26T07:20:58.125Z,22.52
2018-07-26T07:23:29.298Z,22.63
2018-07-26T07:25:58.467Z,22.57
2018-07-26T07:31:03.302Z,22.97
2018-07-26T07:36:08.039Z,23.45
2018-07-26T07:38:37.101Z,23.41
2018-07-26T07:43:42.918Z,23.87
2018-07-26T07:46:12.002Z,24.00
2018-07-26T07:48:41.159Z,24.15
2018-07-26T07:51:10.216Z,24.13
2018-07-26T07:53:40.186Z,24.10
2018-07-26T07:58:46.499Z,24.46
2018-07-26T08:01:21.075Z,24.52
2018-07-26T08:03:50.131Z,24.37
2018-07-26T08:06:19.221Z,24.65
2018-07-26T08:08:48.695Z,24.82
2018-07-26T08:11:17.756Z,25.12
2018-07-26T08:13:46.781Z,25.24
2018-07-26T08:16:17.942Z,25.36
2018-07-26T08:18:47.217Z,25.59
2018-07-26T08:21:17.206Z,25.78
2018-07-26T08:26:33.051Z,25.85
2018-07-26T08:29:02.098Z,25.68
2018-07-26T08:34:06.973Z,26.09
2018-07-26T08:36:46.809Z,26.24
2018-07-26T08:39:20.505Z,26.43
2018-07-26T08:41:49.560Z,26.35
2018-07-26T08:49:30.857Z,27.04
2018-07-26T08:52:01.861Z,27.23
2018-07-26T08:57:06.733Z,27.25
2018-07-26T08:59:35.998Z,27.32
2018-07-26T09:02:05.069Z,27.23
2018-07-26T09:04:35.133Z,27.31
2018-07-26T09:07:04.177Z,27.16
2018-07-26T09:09:33.234Z,27.80
2018-07-26T09:12:02.280Z,28.34
2018-07-26T09:14:31.327Z,28.61
2018-07-26T09:17:00.610Z,28.72
2018-07-26T09:19:29.669Z,28.83
2018-07-26T09:21:58.721Z,29.09
2018-07-26T09:24:30.854Z,28.75
2018-07-26T09:27:00.213Z,28.90
2018-07-26T09:29:30.539Z,30.71
2018-07-26T09:32:00.563Z,31.86
2018-07-26T09:34:29.620Z,31.17
2018-07-26T09:39:35.489Z,32.16
2018-07-26T09:42:04.545Z,32.54
2018-07-26T09:44:40.786Z,32.44
2018-07-26T09:47:09.871Z,32.42
2018-07-26T09:49:38.960Z,31.33
2018-07-26T09:52:10.345Z,33.40
2018-07-26T09:54:39.465Z,34.64
2018-07-26T09:59:44.307Z,34.89
2018-07-26T10:04:56.103Z,37.21
2018-07-26T10:07:29.912Z,38.15
2018-07-26T10:09:58.965Z,36.14
2018-07-26T10:12:30.263Z,37.18
2018-07-26T10:14:59.302Z,38.27
2018-07-26T10:20:04.486Z,39.58
2018-07-26T10:22:33.536Z,39.79
2018-07-26T10:25:04.561Z,38.99
2018-07-26T10:27:33.618Z,38.34
2018-07-26T10:30:02.793Z,39.31
2018-07-26T10:32:32.819Z,39.11
2018-07-26T10:37:38.547Z,40.11
2018-07-26T10:40:07.596Z,40.13
2018-07-26T10:42:36.649Z,38.08
2018-07-26T10:45:08.366Z,38.06
2018-07-26T10:47:37.462Z,38.51
2018-07-26T10:50:06.500Z,39.51
2018-07-26T10:55:11.282Z,40.10
2018-07-26T10:57:42.295Z,42.05
2018-07-26T11:00:12.537Z,42.35
2018-07-26T11:02:41.567Z,43.15
2018-07-26T11:05:10.613Z,40.60
2018-07-26T11:07:40.633Z,42.40
2018-07-26T11:10:09.754Z,42.77
2018-07-26T11:12:38.803Z,40.64
2018-07-26T11:15:07.876Z,40.24
2018-07-26T11:17:38.205Z,40.23
2018-07-26T11:20:07.485Z,43.55
2018-07-26T11:22:36.512Z,41.72
2018-07-26T11:25:05.603Z,42.42
2018-07-26T11:27:35.130Z,43.25
2018-07-26T11:30:04.218Z,42.54
2018-07-26T11:32:33.248Z,43.50
2018-07-26T11:35:04.215Z,39.21
2018-07-26T11:37:35.381Z,40.77
2018-07-26T11:40:09.162Z,39.94
2018-07-26T11:42:38.219Z,42.50
2018-07-26T11:45:07.271Z,45.31
2018-07-26T11:47:37.277Z,42.81
2018-07-26T11:50:06.580Z,43.72
2018-07-26T11:55:11.337Z,41.65
2018-07-26T11:57:40.486Z,43.15
2018-07-26T12:00:11.719Z,40.35
2018-07-26T12:02:44.838Z,40.18
2018-07-26T12:05:13.885Z,38.23
2018-07-26T12:07:42.937Z,37.53
2018-07-26T12:10:12.262Z,40.03
2018-07-26T12:12:41.306Z,44.24
2018-07-26T12:17:46.088Z,45.24
2018-07-26T12:22:50.997Z,45.56
2018-07-26T12:25:20.025Z,45.16
2018-07-26T12:27:49.093Z,42.72
2018-07-26T12:30:18.217Z,43.33
2018-07-26T12:32:47.305Z,43.84
2018-07-26T12:35:16.366Z,41.81
2018-07-26T12:37:46.233Z,44.75
2018-07-26T12:42:50.978Z,44.35
2018-07-26T12:45:20.277Z,41.72
2018-07-26T12:50:25.030Z,39.38
2018-07-26T12:52:55.031Z,40.42
2018-07-26T12:55:25.045Z,39.98
2018-07-26T12:57:54.092Z,43.44
2018-07-26T13:00:23.399Z,46.25
2018-07-26T13:02:52.453Z,40.79
2018-07-26T13:05:22.469Z,44.50
2018-07-26T13:07:58.795Z,44.25
2018-07-26T13:10:27.862Z,40.66
2018-07-26T13:12:58.857Z,40.07
2018-07-26T13:15:28.243Z,40.60
2018-07-26T13:17:57.379Z,39.17
2018-07-26T13:20:26.417Z,38.62
2018-07-26T13:25:31.341Z,42.46
2018-07-26T13:28:00.397Z,43.02
2018-07-26T13:30:33.210Z,46.20
2018-07-26T13:33:04.251Z,46.08
2018-07-26T13:35:34.577Z,41.64
2018-07-26T13:38:03.604Z,40.90
2018-07-26T13:40:32.651Z,35.32
2018-07-26T13:43:01.933Z,37.04
2018-07-26T13:45:31.152Z,40.02
2018-07-26T13:50:36.272Z,41.24
2018-07-26T13:58:24.771Z,41.65
2018-07-26T14:00:55.801Z,41.02
2018-07-26T14:03:25.002Z,39.03
2018-07-26T14:05:54.080Z,43.51
2018-07-26T14:08:24.101Z,42.74
2018-07-26T14:10:55.147Z,42.32
2018-07-26T14:13:24.466Z,43.96
2018-07-26T14:15:55.768Z,45.37
2018-07-26T14:18:24.716Z,45.24
2018-07-26T14:20:57.470Z,42.84
2018-07-26T14:23:26.529Z,43.61
2018-07-26T14:25:55.578Z,42.85
2018-07-26T14:28:27.924Z,41.38
2018-07-26T14:30:57.500Z,39.65
2018-07-26T14:36:02.669Z,39.08
2018-07-26T14:38:31.714Z,36.94
2018-07-26T14:41:00.769Z,38.71
2018-07-26T14:43:29.817Z,42.07
2018-07-26T14:48:34.183Z,43.60
2018-07-26T14:51:03.560Z,41.41
2018-07-26T14:53:33.566Z,38.53
2018-07-26T14:56:03.596Z,39.19
2018-07-26T14:58:37.433Z,38.31
2018-07-26T15:01:07.419Z,42.03
2018-07-26T15:03:36.489Z,41.51
2018-07-26T15:06:05.849Z,43.49
2018-07-26T15:08:34.893Z,45.49
2018-07-26T15:11:05.895Z,44.05
2018-07-26T15:13:34.938Z,40.77
2018-07-26T15:16:04.748Z,43.47
2018-07-26T15:18:33.808Z,44.50
2018-07-26T15:26:15.317Z,45.73
2018-07-26T15:28:44.340Z,47.19
2018-07-26T15:31:16.887Z,44.04
2018-07-26T15:36:19.198Z,46.37
2018-07-26T15:38:50.211Z,39.65
2018-07-26T15:41:19.264Z,37.57
2018-07-26T15:46:24.244Z,33.70
2018-07-26T15:48:53.429Z,33.80
2018-07-26T15:51:22.582Z,33.66
2018-07-26T15:53:51.637Z,37.03
2018-07-26T15:56:20.691Z,40.49
2018-07-26T15:58:50.768Z,41.89
2018-07-26T16:01:21.018Z,39.42
2018-07-26T16:03:51.050Z,38.37
2018-07-26T16:06:21.077Z,37.13
2018-07-26T16:11:25.965Z,40.42
2018-07-26T16:13:56.036Z,42.10
2018-07-26T16:16:25.089Z,42.95
2018-07-26T16:21:30.092Z,42.82
2018-07-26T16:23:59.294Z,41.05
2018-07-26T16:26:29.395Z,41.82
2018-07-26T16:28:59.492Z,38.88
2018-07-26T16:31:28.477Z,40.05
2018-07-26T16:33:57.696Z,38.29
2018-07-26T16:39:02.525Z,36.00
2018-07-26T16:41:32.617Z,34.70
2018-07-26T16:44:01.669Z,33.65
2018-07-26T16:46:30.730Z,33.59
2018-07-26T16:51:35.492Z,32.70
2018-07-26T16:54:04.545Z,32.85
2018-07-26T16:56:34.736Z,31.29
2018-07-26T17:01:39.660Z,31.31
2018-07-26T17:04:12.511Z,29.88
2018-07-26T17:06:45.204Z,30.20
2018-07-26T17:09:14.262Z,30.02
2018-07-26T17:11:47.120Z,30.05
2018-07-26T17:14:17.301Z,29.98
2018-07-26T17:16:46.413Z,29.90
2018-07-26T17:19:18.556Z,29.58
2018-07-26T17:21:49.577Z,29.38
2018-07-26T17:24:18.627Z,29.34
2018-07-26T17:26:47.692Z,29.16
2018-07-26T17:29:16.912Z,29.09
2018-07-26T17:31:46.001Z,29.22
2018-07-26T17:34:15.058Z,28.74
2018-07-26T17:36:44.160Z,28.38
2018-07-26T17:39:13.310Z,28.61
2018-07-26T17:41:42.326Z,28.45
2018-07-26T17:44:11.397Z,28.19
2018-07-26T17:46:41.432Z,28.30
2018-07-26T17:51:48.242Z,28.28
2018-07-26T17:54:17.291Z,27.84
2018-07-26T17:59:22.104Z,27.61
2018-07-26T18:01:52.253Z,27.50
2018-07-26T18:04:22.335Z,27.43
2018-07-26T18:06:52.346Z,27.35
2018-07-26T18:09:21.393Z,27.24
2018-07-26T18:11:50.454Z,27.07
2018-07-26T18:14:19.742Z,27.11
2018-07-26T18:19:24.621Z,26.81
2018-07-26T18:21:53.681Z,26.77
2018-07-26T18:24:27.501Z,26.63
2018-07-26T18:27:00.629Z,26.41
2018-07-26T18:29:31.725Z,26.17
2018-07-26T18:32:02.686Z,26.18
2018-07-26T18:37:07.647Z,26.22
2018-07-26T18:39:37.664Z,26.01
2018-07-26T18:44:42.604Z,25.84
2018-07-26T18:49:56.062Z,25.76
2018-07-26T18:52:25.156Z,25.68
2018-07-26T18:55:01.654Z,25.62
2018-07-26T18:57:32.673Z,25.33
2018-07-26T19:00:12.308Z,25.13
2018-07-26T19:02:42.526Z,24.96
2018-07-26T19:05:11.716Z,24.88
2018-07-26T19:10:20.480Z,24.26
2018-07-26T19:12:49.538Z,23.95
2018-07-26T19:15:25.643Z,23.52
2018-07-26T19:20:30.510Z,23.57
2018-07-26T19:23:00.568Z,23.63
2018-07-26T19:25:29.615Z,23.46
2018-07-26T19:28:00.649Z,23.26
2018-07-26T19:30:29.701Z,23.01
2018-07-26T19:32:58.753Z,22.71
2018-07-26T19:35:27.833Z,22.59
2018-07-26T19:40:32.634Z,22.59
2018-07-26T19:43:04.972Z,22.57
2018-07-26T19:45:34.034Z,22.39
2018-07-26T19:48:03.115Z,22.17
2018-07-26T19:50:32.202Z,22.05
2018-07-26T19:53:04.281Z,22.02
2018-07-26T19:55:37.139Z,21.91
2018-07-26T20:00:41.997Z,21.73
2018-07-26T20:03:11.085Z,21.67
2018-07-26T20:05:40.114Z,21.37
2018-07-26T20:08:09.272Z,21.10
2018-07-26T20:10:38.346Z,20.91
2018-07-26T20:13:07.382Z,20.95
2018-07-26T20:15:38.183Z,20.80
2018-07-26T20:18:07.639Z,20.69
2018-07-26T20:23:12.503Z,20.69
2018-07-26T20:25:41.543Z,20.93
2018-07-26T20:28:11.026Z,20.74
2018-07-26T20:30:40.128Z,20.55
2018-07-26T20:33:09.255Z,20.46
2018-07-26T20:35:38.321Z,20.40
2018-07-26T20:38:07.378Z,20.33
2018-07-26T20:40:36.437Z,20.26
2018-07-26T20:43:05.517Z,20.21
2018-07-26T20:45:34.611Z,20.09
2018-07-26T20:50:40.479Z,20.22
2018-07-26T20:53:10.469Z,20.21
2018-07-26T20:55:40.490Z,20.12
2018-07-26T20:58:09.547Z,20.01
2018-07-26T21:00:38.597Z,19.92
2018-07-26T21:03:07.653Z,19.84
2018-07-26T21:05:36.730Z,19.80
2018-07-26T21:08:05.785Z,19.72
2018-07-26T21:10:35.805Z,19.70
2018-07-26T21:13:04.862Z,19.62
2018-07-26T21:15:33.929Z,19.57
2018-07-26T21:20:38.830Z,19.59
2018-07-26T21:23:07.874Z,19.84
2018-07-26T21:25:38.968Z,19.89
2018-07-26T21:28:08.006Z,19.86
2018-07-26T21:30:37.087Z,19.86
2018-07-26T21:33:06.117Z,19.81
2018-07-26T21:38:10.990Z,19.88
2018-07-26T21:40:40.381Z,19.92
2018-07-26T21:43:09.379Z,19.73
2018-07-26T21:48:14.229Z,19.54
2018-07-26T21:53:19.085Z,19.41
2018-07-26T21:55:49.087Z,19.35
2018-07-26T21:58:18.140Z,19.20
2018-07-26T22:00:47.235Z,19.07
2018-07-26T22:03:16.278Z,19.02
2018-07-26T22:05:45.345Z,18.72
2018-07-26T22:08:14.412Z,18.68
2018-07-26T22:10:44.415Z,18.65
2018-07-26T22:13:13.474Z,18.62
2018-07-26T22:18:18.258Z,18.71
2018-07-26T22:20:49.293Z,18.66
2018-07-26T22:23:18.452Z,18.53
2018-07-26T22:25:49.326Z,18.45
2018-07-26T22:28:19.346Z,18.38
2018-07-26T22:30:50.397Z,18.34
2018-07-26T22:33:19.471Z,18.36
2018-07-26T22:35:48.532Z,18.35
2018-07-26T22:38:17.585Z,18.28
2018-07-26T22:40:47.525Z,18.23
2018-07-26T22:43:16.609Z,18.47
2018-07-26T22:45:47.651Z,18.46
2018-07-26T22:48:16.713Z,18.57
2018-07-26T22:50:46.804Z,18.63
2018-07-26T22:53:15.854Z,18.79
2018-07-26T22:58:20.643Z,18.95
2018-07-26T23:00:49.689Z,18.94
2018-07-26T23:03:18.852Z,18.96
2018-07-26T23:05:47.921Z,18.90
2018-07-26T23:08:17.933Z,18.63
2018-07-26T23:10:47.038Z,18.52
2018-07-26T23:18:29.634Z,18.39
2018-07-26T23:20:58.796Z,18.28
2018-07-26T23:23:27.856Z,18.42
2018-07-26T23:25:56.921Z,18.29
2018-07-26T23:28:25.985Z,18.25
2018-07-26T23:30:55.025Z,18.05
2018-07-26T23:33:24.093Z,17.95
2018-07-26T23:35:53.325Z,17.93
2018-07-26T23:38:22.417Z,18.00
2018-07-26T23:40:51.505Z,18.05
2018-07-26T23:43:20.549Z,17.85
2018-07-26T23:45:49.627Z,17.75
2018-07-26T23:48:18.738Z,17.68
2018-07-26T23:50:47.846Z,17.65
2018-07-26T23:53:16.906Z,17.70
2018-07-26T23:55:46.897Z,17.69
